Time;durP1;ratioP1;P1;durP2;ratioP2;P2;SDS_P1;SDS_P2;PMS_P1;PMS_P2;Temp;Humidity;BMP_temperature;BMP_pressure;BME280_temperature;BME280_humidity;BME280_pressure;Samples;Min_cycle;Max_cycle;Signal;HPM_P1;HPM_P2
2021/07/09 00:01:05;;;;;;;36.00;33.00;;;;;;;;;;5056157;28;20435;-95
2021/07/09 00:03:32;;;;;;;36.40;33.57;;;;;;;;;;5056535;28;20462;-95
2021/07/09 00:06:00;;;;;;;32.57;30.47;;;;;;;;;;5056611;28;20434;-94
2021/07/09 00:08:27;;;;;;;37.07;33.70;;;;;;;;;;5039054;28;20457;-95
2021/07/09 00:10:54;;;;;;;34.97;32.00;;;;;;;;;;5056347;28;20456;-95
2021/07/09 00:13:23;;;;;;;34.03;31.83;;;;;;;;;;5056348;28;20430;-94
2021/07/09 00:15:51;;;;;;;35.83;33.43;;;;;;;;;;5056290;28;21165;-94
2021/07/09 00:18:19;;;;;;;36.03;33.43;;;;;;;;;;5057203;28;20760;-94
2021/07/09 00:20:46;;;;;;;34.77;32.27;;;;;;;;;;5056728;28;20421;-94
2021/07/09 00:23:14;;;;;;;34.20;31.40;;;;;;;;;;5038662;28;20481;-94
2021/07/09 00:25:42;;;;;;;34.67;32.17;;;;;;;;;;5056352;28;20442;-95
2021/07/09 00:28:09;;;;;;;35.27;32.67;;;;;;;;;;5038740;28;20462;-95
2021/07/09 00:30:38;;;;;;;34.60;32.10;;;;;;;;;;5056101;28;20418;-95
2021/07/09 00:33:05;;;;;;;34.00;31.50;;;;;;;;;;5055864;28;20484;-95
2021/07/09 00:35:33;;;;;;;33.37;30.77;;;;;;;;;;5056179;28;20434;-95
2021/07/09 00:38:00;;;;;;;34.97;32.40;;;;;;;;;;5056980;28;20422;-94
2021/07/09 00:40:27;;;;;;;34.53;32.20;;;;;;;;;;5038166;28;20447;-94
2021/07/09 00:42:55;;;;;;;34.10;31.40;;;;;;;;;;5055768;28;20440;-94
2021/07/09 00:45:23;;;;;;;35.47;32.97;;;;;;;;;;5056196;28;20810;-95
2021/07/09 00:47:52;;;;;;;33.80;31.50;;;;;;;;;;5055990;28;20884;-95
2021/07/09 00:50:19;;;;;;;34.93;32.07;;;;;;;;;;5055977;28;20444;-95
2021/07/09 00:52:47;;;;;;;34.03;31.63;;;;;;;;;;5056211;28;20481;-93
2021/07/09 00:55:16;;;;;;;33.80;31.40;;;;;;;;;;5038497;28;20447;-95
2021/07/09 00:57:46;;;;;;;32.90;30.70;;;;;;;;;;5055971;28;20399;-94
2021/07/09 01:00:14;;;;;;;35.57;32.77;;;;;;;;;;5055512;28;20405;-94
2021/07/09 01:02:41;;;;;;;32.97;30.67;;;;;;;;;;5055329;28;20846;-94
2021/07/09 01:05:12;;;;;;;33.90;31.53;;;;;;;;;;5055957;28;20418;-95
2021/07/09 01:07:39;;;;;;;33.53;31.10;;;;;;;;;;5055629;28;20519;-94
2021/07/09 01:10:10;;;;;;;34.00;31.60;;;;;;;;;;5055463;28;20455;-94
2021/07/09 01:12:37;;;;;;;32.03;29.70;;;;;;;;;;5054187;28;20410;-95
2021/07/09 01:15:06;;;;;;;34.10;31.30;;;;;;;;;;5055481;28;20421;-94
2021/07/09 01:17:33;;;;;;;35.07;32.67;;;;;;;;;;5055179;28;20455;-94
2021/07/09 01:20:02;;;;;;;34.27;31.90;;;;;;;;;;5055304;28;20525;-94
2021/07/09 01:22:32;;;;;;;34.93;32.00;;;;;;;;;;5055067;28;20455;-94
2021/07/09 01:25:01;;;;;;;33.73;31.10;;;;;;;;;;5055120;28;20462;-94
2021/07/09 01:27:28;;;;;;;33.00;30.50;;;;;;;;;;5054844;28;20426;-95
2021/07/09 01:29:55;;;;;;;34.17;31.77;;;;;;;;;;5054780;28;20498;-95
2021/07/09 01:32:23;;;;;;;34.07;31.47;;;;;;;;;;5054838;28;20471;-95
2021/07/09 01:34:50;;;;;;;35.53;32.27;;;;;;;;;;5054570;28;20976;-94
2021/07/09 01:37:18;;;;;;;33.90;31.60;;;;;;;;;;5055174;28;20887;-95
2021/07/09 01:39:47;;;;;;;34.37;32.03;;;;;;;;;;5054936;28;20454;-93
2021/07/09 01:42:16;;;;;;;35.10;32.70;;;;;;;;;;5058941;28;20443;-96
2021/07/09 01:44:44;;;;;;;36.23;33.30;;;;;;;;;;5059570;28;20400;-96
2021/07/09 01:47:11;;;;;;;35.17;32.40;;;;;;;;;;5041143;28;20436;-96
2021/07/09 01:49:51;;;;;;;34.63;31.90;;;;;;;;;;5059087;28;20478;-96
2021/07/09 01:52:19;;;;;;;35.93;33.20;;;;;;;;;;5060029;28;20466;-96
2021/07/09 01:54:47;;;;;;;36.27;33.87;;;;;;;;;;5059084;28;20917;-96
2021/07/09 01:57:16;;;;;;;36.73;33.93;;;;;;;;;;5059080;28;20451;-96
2021/07/09 01:59:44;;;;;;;35.43;32.53;;;;;;;;;;5058788;28;20511;-96
2021/07/09 02:02:12;;;;;;;35.00;32.37;;;;;;;;;;5059333;28;20414;-96
2021/07/09 02:04:49;;;;;;;36.90;34.40;;;;;;;;;;5059486;28;20512;-96
2021/07/09 02:07:17;;;;;;;37.03;34.20;;;;;;;;;;5059230;28;20442;-96
2021/07/09 02:09:45;;;;;;;35.20;32.63;;;;;;;;;;5041222;28;20474;-96
2021/07/09 02:12:13;;;;;;;37.63;34.50;;;;;;;;;;5040857;28;20433;-96
2021/07/09 02:14:43;;;;;;;36.90;34.20;;;;;;;;;;5059249;28;20426;-96
2021/07/09 02:17:11;;;;;;;37.07;34.27;;;;;;;;;;5058643;28;20797;-96
2021/07/09 02:19:39;;;;;;;39.30;36.20;;;;;;;;;;5058830;28;20429;-96
2021/07/09 02:22:08;;;;;;;39.67;36.63;;;;;;;;;;5058402;28;20838;-96
2021/07/09 02:24:35;;;;;;;40.67;37.37;;;;;;;;;;5058786;28;20406;-96
2021/07/09 02:27:03;;;;;;;37.43;34.63;;;;;;;;;;5058942;28;20414;-96
2021/07/09 02:29:31;;;;;;;39.90;36.73;;;;;;;;;;5058095;28;20485;-96
2021/07/09 02:32:00;;;;;;;40.67;37.37;;;;;;;;;;5058271;28;20489;-96
2021/07/09 02:34:28;;;;;;;42.37;38.37;;;;;;;;;;5059483;28;20794;-96
2021/07/09 02:36:56;;;;;;;40.27;37.23;;;;;;;;;;5059333;28;20859;-96
2021/07/09 02:39:24;;;;;;;38.87;35.70;;;;;;;;;;5058810;28;20456;-96
2021/07/09 02:41:52;;;;;;;40.93;37.63;;;;;;;;;;5058995;28;20459;-96
2021/07/09 02:44:19;;;;;;;42.23;38.73;;;;;;;;;;5059484;28;20410;-96
2021/07/09 02:46:46;;;;;;;42.33;37.90;;;;;;;;;;5058903;28;20419;-96
2021/07/09 02:49:15;;;;;;;40.07;36.57;;;;;;;;;;5024946;28;20474;-96
2021/07/09 02:51:44;;;;;;;39.40;36.17;;;;;;;;;;5058981;28;20428;-96
2021/07/09 02:54:11;;;;;;;36.63;33.50;;;;;;;;;;5058508;28;20800;-96
2021/07/09 02:56:39;;;;;;;39.10;35.50;;;;;;;;;;5058096;28;20492;-96
2021/07/09 02:59:06;;;;;;;38.63;35.27;;;;;;;;;;5057883;28;20422;-96
2021/07/09 03:01:38;;;;;;;37.47;34.53;;;;;;;;;;5057238;28;20442;-96
2021/07/09 03:04:06;;;;;;;38.87;35.73;;;;;;;;;;5057944;28;20526;-96
2021/07/09 03:06:35;;;;;;;37.63;34.43;;;;;;;;;;5039801;28;20501;-96
2021/07/09 03:09:02;;;;;;;40.97;37.40;;;;;;;;;;5040594;28;20495;-96
2021/07/09 03:11:30;;;;;;;36.77;33.40;;;;;;;;;;5041086;28;20426;-96
2021/07/09 03:13:57;;;;;;;37.90;34.80;;;;;;;;;;5058475;28;20413;-96
2021/07/09 03:16:25;;;;;;;37.93;34.77;;;;;;;;;;5058805;28;20417;-96
2021/07/09 03:18:52;;;;;;;36.07;33.27;;;;;;;;;;5057841;28;20434;-96
2021/07/09 03:21:20;;;;;;;35.90;33.20;;;;;;;;;;5056104;28;20474;-96
2021/07/09 03:23:49;;;;;;;35.57;32.90;;;;;;;;;;5060153;28;20428;-96
2021/07/09 03:26:16;;;;;;;37.90;34.90;;;;;;;;;;5061276;28;20419;-96
2021/07/09 03:28:43;;;;;;;34.63;32.03;;;;;;;;;;5060207;28;20926;-96
2021/07/09 03:31:11;;;;;;;35.47;32.60;;;;;;;;;;5061794;28;20452;-96
2021/07/09 03:33:39;;;;;;;35.43;32.37;;;;;;;;;;5061181;28;20418;-96
2021/07/09 03:36:07;;;;;;;36.33;33.30;;;;;;;;;;5063033;28;20422;-96
2021/07/09 03:38:34;;;;;;;36.37;33.50;;;;;;;;;;5064470;28;20446;-96
2021/07/09 03:41:03;;;;;;;35.40;32.60;;;;;;;;;;5065396;28;20445;-96
2021/07/09 03:43:31;;;;;;;33.87;31.47;;;;;;;;;;5066049;28;20453;-96
2021/07/09 03:45:59;;;;;;;34.97;31.60;;;;;;;;;;5046694;28;20418;-96
2021/07/09 03:48:26;;;;;;;34.27;31.53;;;;;;;;;;5030975;28;20444;-96
2021/07/09 03:50:54;;;;;;;33.83;31.10;;;;;;;;;;5064464;28;20850;-96
2021/07/09 03:53:21;;;;;;;32.90;30.33;;;;;;;;;;5063724;28;20447;-96
2021/07/09 03:55:49;;;;;;;33.00;30.60;;;;;;;;;;5046810;28;20454;-96
2021/07/09 03:58:18;;;;;;;34.70;32.03;;;;;;;;;;5046803;28;20449;-96
2021/07/09 04:00:45;;;;;;;35.13;31.63;;;;;;;;;;5047631;28;20442;-96
2021/07/09 04:03:13;;;;;;;33.47;30.77;;;;;;;;;;5064890;28;20440;-96
2021/07/09 04:05:40;;;;;;;32.60;29.77;;;;;;;;;;5047394;28;20431;-96
2021/07/09 04:08:08;;;;;;;32.13;29.53;;;;;;;;;;5047288;28;20426;-96
2021/07/09 04:10:36;;;;;;;32.87;29.80;;;;;;;;;;5046214;28;20450;-96
2021/07/09 04:13:03;;;;;;;32.97;30.20;;;;;;;;;;5064467;28;20422;-96
2021/07/09 04:15:33;;;;;;;32.93;29.67;;;;;;;;;;5046607;28;20435;-96
2021/07/09 04:18:00;;;;;;;31.60;29.20;;;;;;;;;;5065187;28;20455;-96
2021/07/09 04:20:28;;;;;;;32.13;29.53;;;;;;;;;;5063219;28;20497;-96
2021/07/09 04:22:56;;;;;;;31.23;28.80;;;;;;;;;;5063512;28;20820;-96
2021/07/09 04:25:24;;;;;;;30.67;28.47;;;;;;;;;;5063704;28;20426;-96
2021/07/09 04:27:51;;;;;;;31.07;28.57;;;;;;;;;;5057125;28;20431;-86
2021/07/09 04:30:20;;;;;;;32.00;29.47;;;;;;;;;;5056172;28;20462;-86
2021/07/09 04:32:49;;;;;;;31.77;28.97;;;;;;;;;;5055786;28;20473;-96
2021/07/09 04:35:17;;;;;;;30.90;28.23;;;;;;;;;;5061902;28;20456;-96
2021/07/09 04:37:44;;;;;;;31.13;28.43;;;;;;;;;;5027676;28;20473;-96
2021/07/09 04:40:12;;;;;;;30.73;28.33;;;;;;;;;;5057884;28;20451;-86
2021/07/09 04:42:40;;;;;;;31.63;28.47;;;;;;;;;;5038508;28;20414;-86
2021/07/09 04:45:08;;;;;;;30.33;27.93;;;;;;;;;;5038261;28;20475;-86
2021/07/09 04:47:35;;;;;;;30.23;27.93;;;;;;;;;;5057605;28;20429;-96
2021/07/09 04:50:04;;;;;;;31.60;29.00;;;;;;;;;;5058810;28;20468;-96
2021/07/09 04:52:32;;;;;;;31.00;28.30;;;;;;;;;;5058883;28;20409;-96
2021/07/09 04:55:00;;;;;;;29.90;27.57;;;;;;;;;;5041398;28;20414;-96
2021/07/09 04:57:27;;;;;;;31.80;29.27;;;;;;;;;;5039320;28;20859;-96
2021/07/09 04:59:55;;;;;;;31.50;29.00;;;;;;;;;;5039605;28;20451;-96
2021/07/09 05:02:22;;;;;;;29.57;27.20;;;;;;;;;;5040130;28;20437;-96
2021/07/09 05:04:50;;;;;;;30.60;28.17;;;;;;;;;;5055785;28;20434;-86
2021/07/09 05:07:18;;;;;;;30.30;27.90;;;;;;;;;;5055635;28;20757;-87
2021/07/09 05:09:46;;;;;;;32.23;29.53;;;;;;;;;;5055576;28;20490;-85
2021/07/09 05:12:14;;;;;;;32.63;29.93;;;;;;;;;;5055492;28;20940;-96
2021/07/09 05:14:41;;;;;;;30.47;27.97;;;;;;;;;;5038184;28;20421;-96
2021/07/09 05:17:09;;;;;;;31.70;29.20;;;;;;;;;;5038100;28;20422;-86
2021/07/09 05:19:36;;;;;;;33.17;30.00;;;;;;;;;;5055340;28;20418;-86
2021/07/09 05:22:03;;;;;;;33.43;30.80;;;;;;;;;;5055762;28;20798;-86
2021/07/09 05:24:32;;;;;;;33.77;30.57;;;;;;;;;;5055356;28;20948;-96
2021/07/09 05:27:00;;;;;;;33.87;31.00;;;;;;;;;;5056166;28;20466;-96
2021/07/09 05:29:27;;;;;;;34.63;31.87;;;;;;;;;;5057275;28;20439;-94
2021/07/09 05:31:55;;;;;;;39.47;35.67;;;;;;;;;;5055072;28;20467;-85
2021/07/09 05:34:22;;;;;;;44.27;39.87;;;;;;;;;;5054927;28;20418;-85
2021/07/09 05:36:50;;;;;;;38.93;35.73;;;;;;;;;;5054578;28;20912;-96
2021/07/09 05:39:17;;;;;;;40.40;36.50;;;;;;;;;;5038272;28;20449;-96
2021/07/09 05:41:46;;;;;;;44.93;40.20;;;;;;;;;;5039247;28;20914;-94
2021/07/09 05:44:14;;;;;;;40.90;37.20;;;;;;;;;;5054857;28;20462;-85
2021/07/09 05:46:41;;;;;;;42.97;38.57;;;;;;;;;;5055004;28;20403;-85
2021/07/09 05:49:09;;;;;;;40.17;36.23;;;;;;;;;;5054196;28;20439;-85
2021/07/09 05:51:36;;;;;;;42.53;38.90;;;;;;;;;;5036655;28;20463;-84
2021/07/09 05:54:04;;;;;;;41.23;37.33;;;;;;;;;;5036751;28;20475;-84
2021/07/09 05:56:31;;;;;;;40.50;36.90;;;;;;;;;;5054373;28;20794;-85
2021/07/09 05:59:00;;;;;;;41.73;38.23;;;;;;;;;;5036216;28;20926;-85
2021/07/09 06:01:27;;;;;;;41.17;37.53;;;;;;;;;;5054402;28;20435;-84
2021/07/09 06:03:55;;;;;;;44.17;40.10;;;;;;;;;;5054332;28;20450;-85
2021/07/09 06:06:22;;;;;;;42.73;38.53;;;;;;;;;;5054381;28;20425;-86
2021/07/09 06:08:50;;;;;;;42.40;38.53;;;;;;;;;;5054110;28;20446;-85
2021/07/09 06:11:17;;;;;;;43.70;39.57;;;;;;;;;;5054017;28;20457;-85
2021/07/09 06:13:44;;;;;;;40.57;36.57;;;;;;;;;;5054002;28;20425;-86
2021/07/09 06:16:13;;;;;;;41.77;37.47;;;;;;;;;;5054114;28;20445;-85
2021/07/09 06:18:40;;;;;;;46.00;41.20;;;;;;;;;;5054292;28;20405;-85
2021/07/09 06:21:08;;;;;;;41.90;37.60;;;;;;;;;;5054082;28;20416;-85
2021/07/09 06:23:35;;;;;;;42.07;38.17;;;;;;;;;;5054197;28;20424;-85
2021/07/09 06:26:03;;;;;;;39.73;35.73;;;;;;;;;;5053710;28;20484;-85
2021/07/09 06:28:30;;;;;;;42.10;37.63;;;;;;;;;;5054146;28;20784;-85
2021/07/09 06:30:58;;;;;;;41.60;37.57;;;;;;;;;;5053298;28;20465;-85
2021/07/09 06:33:26;;;;;;;44.23;39.47;;;;;;;;;;5053708;28;20426;-85
2021/07/09 06:35:54;;;;;;;42.90;38.70;;;;;;;;;;5053945;28;20416;-85
2021/07/09 06:38:21;;;;;;;40.43;36.50;;;;;;;;;;5036410;28;20443;-85
2021/07/09 06:40:49;;;;;;;42.90;38.70;;;;;;;;;;5053409;28;20450;-84
2021/07/09 06:43:16;;;;;;;43.80;39.63;;;;;;;;;;5054505;28;20887;-85
2021/07/09 06:45:44;;;;;;;41.07;37.17;;;;;;;;;;5053578;28;20409;-85
2021/07/09 06:48:11;;;;;;;42.03;37.87;;;;;;;;;;5053844;28;20480;-85
2021/07/09 06:50:40;;;;;;;44.87;40.40;;;;;;;;;;5053789;28;20457;-91
2021/07/09 06:53:07;;;;;;;45.83;41.30;;;;;;;;;;5053796;28;20433;-91
2021/07/09 06:55:36;;;;;;;47.00;42.17;;;;;;;;;;5053968;28;20460;-93
2021/07/09 06:58:03;;;;;;;55.07;44.93;;;;;;;;;;5053739;28;20548;-92
2021/07/09 07:00:31;;;;;;;48.13;43.23;;;;;;;;;;5054069;28;20439;-93
2021/07/09 07:02:58;;;;;;;50.87;45.40;;;;;;;;;;5053902;28;20770;-94
2021/07/09 07:05:26;;;;;;;50.63;45.30;;;;;;;;;;5054061;28;20410;-93
2021/07/09 07:07:54;;;;;;;63.93;47.50;;;;;;;;;;5054205;28;20430;-92
2021/07/09 07:10:22;;;;;;;60.23;48.43;;;;;;;;;;5053866;28;20468;-92
2021/07/09 07:12:49;;;;;;;49.77;44.43;;;;;;;;;;5057650;28;20419;-93
2021/07/09 07:15:17;;;;;;;49.40;44.10;;;;;;;;;;5057896;28;20434;-91
2021/07/09 07:17:44;;;;;;;55.57;46.53;;;;;;;;;;5057795;28;20793;-92
2021/07/09 07:20:12;;;;;;;51.57;45.03;;;;;;;;;;5057808;28;20918;-90
2021/07/09 07:22:39;;;;;;;49.43;43.40;;;;;;;;;;5039557;28;20418;-88
2021/07/09 07:25:09;;;;;;;52.33;46.70;;;;;;;;;;5039806;28;20448;-90
2021/07/09 07:27:37;;;;;;;53.20;45.53;;;;;;;;;;5057253;28;20437;-93
2021/07/09 07:30:05;;;;;;;46.93;42.00;;;;;;;;;;5040317;28;20418;-93
2021/07/09 07:32:33;;;;;;;42.77;38.67;;;;;;;;;;5057916;28;20437;-92
2021/07/09 07:35:00;;;;;;;44.37;40.27;;;;;;;;;;5057861;28;20440;-94
2021/07/09 07:37:27;;;;;;;49.40;44.17;;;;;;;;;;5057422;28;20442;-93
2021/07/09 07:39:55;;;;;;;47.77;42.80;;;;;;;;;;5057445;28;20457;-93
2021/07/09 07:42:25;;;;;;;44.27;39.50;;;;;;;;;;5056858;28;20429;-93
2021/07/09 07:44:52;;;;;;;45.63;41.17;;;;;;;;;;5056886;28;20971;-91
2021/07/09 07:47:21;;;;;;;46.23;41.97;;;;;;;;;;5057334;28;20412;-92
2021/07/09 07:49:48;;;;;;;44.90;40.50;;;;;;;;;;5056873;28;20443;-88
2021/07/09 07:52:16;;;;;;;46.20;41.80;;;;;;;;;;5056467;28;20959;-81
2021/07/09 07:54:43;;;;;;;43.23;39.13;;;;;;;;;;5057163;28;20406;-93
2021/07/09 07:57:10;;;;;;;45.03;40.60;;;;;;;;;;5057659;28;20415;-82
2021/07/09 07:59:41;;;;;;;41.67;37.70;;;;;;;;;;5057054;28;20407;-81
2021/07/09 08:02:09;;;;;;;35.93;33.00;;;;;;;;;;5056672;28;20474;-86
2021/07/09 08:04:36;;;;;;;37.13;33.93;;;;;;;;;;5058082;28;20454;-91
2021/07/09 08:07:04;;;;;;;38.23;34.93;;;;;;;;;;5056730;28;20438;-88
2021/07/09 08:09:31;;;;;;;35.27;32.47;;;;;;;;;;5055885;28;20441;-90
2021/07/09 08:12:00;;;;;;;35.73;32.53;;;;;;;;;;5056303;28;20475;-87
2021/07/09 08:14:28;;;;;;;33.07;29.87;;;;;;;;;;5056336;28;20448;-83
2021/07/09 08:16:57;;;;;;;31.57;29.17;;;;;;;;;;5056633;28;20439;-85
2021/07/09 08:19:24;;;;;;;32.70;30.10;;;;;;;;;;5056735;28;20435;-80
2021/07/09 08:21:52;;;;;;;27.73;25.83;;;;;;;;;;5054976;28;20421;-81
2021/07/09 08:24:19;;;;;;;29.20;27.23;;;;;;;;;;5055925;28;20414;-81
2021/07/09 08:26:47;;;;;;;29.50;27.40;;;;;;;;;;5055478;28;20876;-81
2021/07/09 08:29:15;;;;;;;29.37;27.37;;;;;;;;;;5055475;28;20917;-87
2021/07/09 08:31:42;;;;;;;30.30;28.10;;;;;;;;;;5055865;28;20498;-89
2021/07/09 08:34:11;;;;;;;26.37;24.30;;;;;;;;;;5056296;28;20413;-89
2021/07/09 08:36:39;;;;;;;28.30;26.40;;;;;;;;;;5056535;28;20432;-85
2021/07/09 08:39:06;;;;;;;27.77;25.67;;;;;;;;;;5055611;28;20433;-84
2021/07/09 08:41:34;;;;;;;26.17;24.40;;;;;;;;;;5056245;28;20465;-91
2021/07/09 08:44:01;;;;;;;27.60;25.60;;;;;;;;;;5056749;28;20451;-82
2021/07/09 08:46:30;;;;;;;27.50;25.43;;;;;;;;;;5055750;28;20414;-82
2021/07/09 08:48:57;;;;;;;25.87;24.17;;;;;;;;;;5055470;28;20504;-84
2021/07/09 08:51:26;;;;;;;26.33;24.63;;;;;;;;;;5055601;28;20494;-84
2021/07/09 08:53:54;;;;;;;27.83;25.70;;;;;;;;;;5055246;28;20425;-84
2021/07/09 08:56:21;;;;;;;39.40;36.60;;;;;;;;;;5055331;28;20411;-84
2021/07/09 08:58:48;;;;;;;35.40;33.20;;;;;;;;;;5055401;28;20946;-84
2021/07/09 09:01:16;;;;;;;43.07;40.10;;;;;;;;;;5055323;28;20400;-84
2021/07/09 09:03:43;;;;;;;56.37;51.40;;;;;;;;;;5055180;28;20406;-84
2021/07/09 09:06:13;;;;;;;58.20;53.77;;;;;;;;;;5055240;28;20440;-84
2021/07/09 09:08:41;;;;;;;54.77;50.83;;;;;;;;;;5054928;28;20435;-84
2021/07/09 09:11:09;;;;;;;53.27;49.27;;;;;;;;;;5054934;28;20445;-84
2021/07/09 09:13:37;;;;;;;54.20;49.83;;;;;;;;;;5055261;28;20407;-84
2021/07/09 09:16:06;;;;;;;48.67;45.27;;;;;;;;;;5055218;28;20414;-84
2021/07/09 09:18:35;;;;;;;52.50;48.50;;;;;;;;;;5054721;28;20423;-83
2021/07/09 09:21:03;;;;;;;49.53;46.00;;;;;;;;;;5055226;28;20422;-84
2021/07/09 09:23:31;;;;;;;47.87;44.90;;;;;;;;;;5054992;28;20538;-83
2021/07/09 09:26:00;;;;;;;48.07;44.80;;;;;;;;;;5054800;28;20455;-84
2021/07/09 09:28:29;;;;;;;49.50;46.20;;;;;;;;;;5055021;28;20441;-84
2021/07/09 09:30:59;;;;;;;47.03;43.47;;;;;;;;;;5054672;28;20858;-83
2021/07/09 09:33:32;;;;;;;47.03;43.40;;;;;;;;;;5036032;28;20462;-84
2021/07/09 09:36:00;;;;;;;46.57;43.47;;;;;;;;;;5054629;28;20422;-84
2021/07/09 09:38:28;;;;;;;48.90;44.27;;;;;;;;;;5055233;28;20437;-84
2021/07/09 09:40:56;;;;;;;47.87;43.67;;;;;;;;;;5054228;28;20472;-92
2021/07/09 09:43:26;;;;;;;47.60;43.10;;;;;;;;;;5054609;28;20451;-85
2021/07/09 09:46:04;;;;;;;44.63;41.00;;;;;;;;;;5054524;28;20439;-85
2021/07/09 09:48:36;;;;;;;45.70;42.40;;;;;;;;;;5054699;28;20414;-84
2021/07/09 09:51:03;;;;;;;44.57;41.37;;;;;;;;;;5054544;28;20445;-84
2021/07/09 09:53:35;;;;;;;44.63;41.43;;;;;;;;;;5054400;28;20915;-86
2021/07/09 09:56:06;;;;;;;44.13;41.10;;;;;;;;;;5037479;28;20463;-94
2021/07/09 09:58:35;;;;;;;47.33;44.10;;;;;;;;;;5054499;28;20464;-91
2021/07/09 10:01:04;;;;;;;44.97;41.77;;;;;;;;;;5054250;28;20443;-93
2021/07/09 10:03:31;;;;;;;44.07;40.57;;;;;;;;;;5055203;28;20422;-93
2021/07/09 10:06:01;;;;;;;42.60;39.70;;;;;;;;;;5054694;28;20405;-91
2021/07/09 10:08:28;;;;;;;43.80;40.90;;;;;;;;;;5054931;28;20424;-96
2021/07/09 10:10:56;;;;;;;40.83;38.33;;;;;;;;;;5053791;28;20416;-90
2021/07/09 10:13:25;;;;;;;43.63;40.73;;;;;;;;;;5054360;28;20417;-81
2021/07/09 10:15:55;;;;;;;44.13;41.13;;;;;;;;;;5054345;28;20457;-85
2021/07/09 10:18:23;;;;;;;48.30;45.20;;;;;;;;;;5054274;28;20846;-84
2021/07/09 10:20:50;;;;;;;46.87;43.67;;;;;;;;;;5054145;28;20431;-81
2021/07/09 10:23:21;;;;;;;44.53;41.53;;;;;;;;;;5053656;28;20443;-82
2021/07/09 10:25:49;;;;;;;44.50;41.60;;;;;;;;;;5054057;28;20456;-82
2021/07/09 10:28:18;;;;;;;42.67;39.80;;;;;;;;;;5053772;28;20415;-82
2021/07/09 10:30:46;;;;;;;46.93;43.93;;;;;;;;;;5053315;28;20449;-82
2021/07/09 10:33:29;;;;;;;47.77;44.43;;;;;;;;;;5053369;28;20527;-82
2021/07/09 10:35:57;;;;;;;44.63;41.90;;;;;;;;;;5053673;28;20449;-82
2021/07/09 10:38:35;;;;;;;45.00;41.70;;;;;;;;;;5053602;28;20419;-81
2021/07/09 10:41:12;;;;;;;49.60;46.13;;;;;;;;;;5053149;28;20485;-82
2021/07/09 10:43:39;;;;;;;43.07;40.27;;;;;;;;;;5054303;28;20415;-83
2021/07/09 10:46:08;;;;;;;48.37;44.00;;;;;;;;;;5056519;28;20407;-80
2021/07/09 10:48:39;;;;;;;43.30;40.47;;;;;;;;;;5058200;28;20520;-85
2021/07/09 10:51:12;;;;;;;46.93;43.40;;;;;;;;;;5058815;28;20434;-95
2021/07/09 10:53:40;;;;;;;43.17;40.17;;;;;;;;;;5058881;28;20455;-94
2021/07/09 10:56:12;;;;;;;44.50;41.27;;;;;;;;;;5057888;28;20434;-93
2021/07/09 10:58:44;;;;;;;42.17;39.57;;;;;;;;;;5058002;28;20883;-93
2021/07/09 11:01:13;;;;;;;41.20;38.50;;;;;;;;;;5057748;28;20437;-94
2021/07/09 11:03:42;;;;;;;44.17;41.27;;;;;;;;;;5058556;28;20903;-85
2021/07/09 11:06:10;;;;;;;43.40;40.80;;;;;;;;;;5057422;28;20534;-81
2021/07/09 11:08:48;;;;;;;39.93;37.43;;;;;;;;;;5056967;28;20780;-81
2021/07/09 11:11:17;;;;;;;42.23;39.73;;;;;;;;;;5057091;28;20426;-81
2021/07/09 11:13:45;;;;;;;41.73;39.23;;;;;;;;;;5039322;28;20414;-81
2021/07/09 11:16:19;;;;;;;40.43;37.93;;;;;;;;;;5057131;28;20443;-81
2021/07/09 11:19:04;;;;;;;43.40;40.73;;;;;;;;;;5056778;28;20851;-81
2021/07/09 11:21:52;;;;;;;42.43;39.53;;;;;;;;;;5056815;28;20427;-81
2021/07/09 11:24:20;;;;;;;40.07;37.17;;;;;;;;;;5057019;28;20471;-81
2021/07/09 11:26:49;;;;;;;43.70;40.60;;;;;;;;;;5056662;28;20427;-83
2021/07/09 11:29:20;;;;;;;42.17;39.50;;;;;;;;;;5039159;28;20410;-85
2021/07/09 11:31:48;;;;;;;43.17;39.97;;;;;;;;;;5056067;28;20501;-85
2021/07/09 11:34:17;;;;;;;41.17;38.53;;;;;;;;;;5058290;28;20450;-84
2021/07/09 11:36:45;;;;;;;40.97;38.17;;;;;;;;;;5056700;28;20415;-83
2021/07/09 11:39:13;;;;;;;37.13;34.83;;;;;;;;;;5056428;28;20443;-84
2021/07/09 11:41:57;;;;;;;39.80;37.23;;;;;;;;;;5056899;28;20418;-84
2021/07/09 11:44:25;;;;;;;39.17;36.40;;;;;;;;;;5056432;28;20434;-82
2021/07/09 11:46:54;;;;;;;42.70;39.50;;;;;;;;;;5056348;28;20827;-80
2021/07/09 11:49:24;;;;;;;43.33;40.00;;;;;;;;;;5056287;28;20417;-80
2021/07/09 11:51:53;;;;;;;41.67;38.57;;;;;;;;;;5056110;28;20453;-79
2021/07/09 11:54:24;;;;;;;44.97;41.17;;;;;;;;;;5056190;28;20405;-80
2021/07/09 11:56:53;;;;;;;44.30;40.53;;;;;;;;;;5054941;28;20449;-80
2021/07/09 11:59:21;;;;;;;41.77;38.03;;;;;;;;;;5056011;28;20414;-80
2021/07/09 12:02:01;;;;;;;44.20;40.70;;;;;;;;;;5055983;28;20455;-79
2021/07/09 12:04:33;;;;;;;44.23;40.73;;;;;;;;;;5055907;28;20454;-80
2021/07/09 12:07:17;;;;;;;42.00;38.20;;;;;;;;;;5056291;28;20782;-80
2021/07/09 12:09:45;;;;;;;43.90;40.07;;;;;;;;;;5055827;28;20410;-80
2021/07/09 12:12:13;;;;;;;41.27;37.97;;;;;;;;;;5056073;28;20477;-80
2021/07/09 12:14:57;;;;;;;44.50;40.40;;;;;;;;;;5055985;28;20421;-79
2021/07/09 12:17:25;;;;;;;41.97;38.33;;;;;;;;;;5055665;28;20772;-80
2021/07/09 12:20:10;;;;;;;42.43;39.03;;;;;;;;;;5055548;28;20452;-80
2021/07/09 12:22:38;;;;;;;42.33;38.80;;;;;;;;;;5055358;28;20915;-79
2021/07/09 12:25:07;;;;;;;42.97;39.70;;;;;;;;;;5038333;28;20414;-80
2021/07/09 12:27:36;;;;;;;40.47;37.17;;;;;;;;;;5037919;28;20445;-80
2021/07/09 12:30:08;;;;;;;40.90;37.47;;;;;;;;;;5055428;28;20413;-80
2021/07/09 12:32:43;;;;;;;43.40;39.70;;;;;;;;;;5055287;28;21053;-80
2021/07/09 12:35:12;;;;;;;41.57;37.73;;;;;;;;;;5055426;28;20410;-80
2021/07/09 12:37:40;;;;;;;42.33;38.83;;;;;;;;;;5055593;28;20798;-80
2021/07/09 12:40:15;;;;;;;45.03;40.93;;;;;;;;;;5055031;28;21011;-80
2021/07/09 12:42:43;;;;;;;41.57;38.10;;;;;;;;;;5055608;28;20464;-80
2021/07/09 12:45:11;;;;;;;43.93;40.00;;;;;;;;;;5055162;28;20795;-80
2021/07/09 12:47:48;;;;;;;44.60;40.80;;;;;;;;;;5055180;28;20923;-80
2021/07/09 12:50:23;;;;;;;42.60;39.00;;;;;;;;;;5055014;28;20535;-80
2021/07/09 12:52:51;;;;;;;42.67;38.97;;;;;;;;;;5055280;28;20469;-80
2021/07/09 12:55:34;;;;;;;41.73;38.37;;;;;;;;;;5055183;28;20819;-80
2021/07/09 12:58:09;;;;;;;40.47;37.30;;;;;;;;;;5054912;28;20447;-80
2021/07/09 13:00:39;;;;;;;41.97;38.67;;;;;;;;;;5055101;28;20407;-80
2021/07/09 13:03:07;;;;;;;42.40;39.20;;;;;;;;;;5055232;28;20444;-80
2021/07/09 13:05:36;;;;;;;41.67;38.20;;;;;;;;;;5037437;28;20422;-79
2021/07/09 13:08:13;;;;;;;41.77;38.43;;;;;;;;;;5054969;28;20470;-80
2021/07/09 13:10:41;;;;;;;40.00;37.00;;;;;;;;;;5054596;28;20413;-80
2021/07/09 13:13:21;;;;;;;42.23;39.03;;;;;;;;;;5054586;28;20794;-80
2021/07/09 13:16:01;;;;;;;42.77;39.27;;;;;;;;;;5054839;28;20444;-80
2021/07/09 13:18:28;;;;;;;39.73;36.80;;;;;;;;;;5054451;28;20977;-80
2021/07/09 13:21:13;;;;;;;41.23;37.70;;;;;;;;;;5054734;28;20434;-79
2021/07/09 13:23:41;;;;;;;42.67;39.37;;;;;;;;;;5054785;28;20423;-80
2021/07/09 13:26:11;;;;;;;43.67;40.20;;;;;;;;;;5054612;28;20412;-80
2021/07/09 13:28:40;;;;;;;42.50;39.03;;;;;;;;;;5054458;28;20464;-80
2021/07/09 13:31:07;;;;;;;41.50;38.40;;;;;;;;;;5054343;28;20473;-80
2021/07/09 13:33:37;;;;;;;42.13;39.13;;;;;;;;;;5054534;28;20469;-80
2021/07/09 13:36:12;;;;;;;39.97;37.10;;;;;;;;;;5054467;28;20412;-79
2021/07/09 13:38:39;;;;;;;40.63;37.80;;;;;;;;;;5054726;28;20466;-80
2021/07/09 13:41:06;;;;;;;41.03;37.93;;;;;;;;;;5053984;28;20481;-80
2021/07/09 13:43:34;;;;;;;41.30;37.90;;;;;;;;;;5054134;28;20415;-80
2021/07/09 13:46:02;;;;;;;39.90;36.93;;;;;;;;;;5054328;28;20760;-79
2021/07/09 13:48:29;;;;;;;41.60;37.87;;;;;;;;;;5054251;28;20511;-80
2021/07/09 13:50:56;;;;;;;40.07;36.90;;;;;;;;;;5054225;28;20429;-79
2021/07/09 13:53:25;;;;;;;39.13;36.40;;;;;;;;;;5054081;28;20501;-79
2021/07/09 13:55:52;;;;;;;37.93;35.27;;;;;;;;;;5054093;28;20428;-79
2021/07/09 13:58:20;;;;;;;36.90;34.10;;;;;;;;;;5053862;28;20427;-80
2021/07/09 14:00:47;;;;;;;37.13;34.43;;;;;;;;;;5053710;28;20831;-79
2021/07/09 14:03:15;;;;;;;35.67;32.87;;;;;;;;;;5053730;28;20915;-80
2021/07/09 14:05:42;;;;;;;34.30;31.90;;;;;;;;;;5053956;28;20412;-80
2021/07/09 14:08:10;;;;;;;34.30;31.77;;;;;;;;;;5053959;28;20449;-80
2021/07/09 14:10:38;;;;;;;33.93;31.60;;;;;;;;;;5053523;28;20462;-80
2021/07/09 14:13:06;;;;;;;33.87;31.37;;;;;;;;;;5053523;28;20454;-80
2021/07/09 14:15:34;;;;;;;33.50;31.20;;;;;;;;;;5053542;28;20456;-80
2021/07/09 14:18:01;;;;;;;36.73;33.80;;;;;;;;;;5053788;28;20478;-80
2021/07/09 14:20:29;;;;;;;33.87;31.57;;;;;;;;;;5052937;28;20422;-80
2021/07/09 14:22:56;;;;;;;33.93;30.47;;;;;;;;;;5053465;28;20444;-80
2021/07/09 14:25:24;;;;;;;32.60;30.30;;;;;;;;;;5053585;28;20422;-79